sensor_id;sensor_type;location;lat;lon;timestamp;P1;durP1;ratioP1;P2;durP2;ratioP2
33268;SDS011;19640;50.944;5.260;2023-03-07T00:00:58;9.23;;;6.97;;
33268;SDS011;19640;50.944;5.260;2023-03-07T00:03:23;9.63;;;7.15;;
33268;SDS011;19640;50.944;5.260;2023-03-07T00:05:58;10.05;;;7.93;;
33268;SDS011;19640;50.944;5.260;2023-03-07T00:08:31;8.55;;;7.00;;
33268;SDS011;19640;50.944;5.260;2023-03-07T00:11:07;8.07;;;6.93;;
33268;SDS011;19640;50.944;5.260;2023-03-07T00:13:33;7.80;;;6.75;;
33268;SDS011;19640;50.944;5.260;2023-03-07T00:16:04;9.85;;;8.25;;
33268;SDS011;19640;50.944;5.260;2023-03-07T00:18:31;11.20;;;7.28;;
33268;SDS011;19640;50.944;5.260;2023-03-07T00:21:08;9.13;;;6.18;;
33268;SDS011;19640;50.944;5.260;2023-03-07T00:23:36;8.35;;;6.72;;
33268;SDS011;19640;50.944;5.260;2023-03-07T00:26:04;10.60;;;6.55;;
33268;SDS011;19640;50.944;5.260;2023-03-07T00:28:31;9.27;;;6.63;;
33268;SDS011;19640;50.944;5.260;2023-03-07T00:30:58;8.90;;;6.80;;
33268;SDS011;19640;50.944;5.260;2023-03-07T00:33:28;8.88;;;6.20;;
33268;SDS011;19640;50.944;5.260;2023-03-07T00:35:57;7.53;;;5.78;;
33268;SDS011;19640;50.944;5.260;2023-03-07T00:38:29;7.40;;;6.07;;
33268;SDS011;19640;50.944;5.260;2023-03-07T00:41:05;7.78;;;5.47;;
33268;SDS011;19640;50.944;5.260;2023-03-07T00:43:36;10.40;;;6.47;;
33268;SDS011;19640;50.944;5.260;2023-03-07T00:46:02;7.88;;;5.95;;
33268;SDS011;19640;50.944;5.260;2023-03-07T00:48:28;6.88;;;5.97;;
33268;SDS011;19640;50.944;5.260;2023-03-07T00:50:54;10.38;;;6.70;;
33268;SDS011;19640;50.944;5.260;2023-03-07T00:53:20;7.28;;;6.57;;
33268;SDS011;19640;50.944;5.260;2023-03-07T00:55:54;9.25;;;6.65;;
33268;SDS011;19640;50.944;5.260;2023-03-07T00:58:21;8.73;;;6.22;;
33268;SDS011;19640;50.944;5.260;2023-03-07T01:00:47;8.55;;;6.47;;
33268;SDS011;19640;50.944;5.260;2023-03-07T01:03:12;10.85;;;6.75;;
33268;SDS011;19640;50.944;5.260;2023-03-07T01:05:38;10.13;;;6.32;;
33268;SDS011;19640;50.944;5.260;2023-03-07T01:08:04;13.90;;;6.88;;
33268;SDS011;19640;50.944;5.260;2023-03-07T01:10:30;8.55;;;7.38;;
33268;SDS011;19640;50.944;5.260;2023-03-07T01:12:57;7.57;;;6.65;;
33268;SDS011;19640;50.944;5.260;2023-03-07T01:15:23;7.80;;;7.00;;
33268;SDS011;19640;50.944;5.260;2023-03-07T01:17:49;8.02;;;6.93;;
33268;SDS011;19640;50.944;5.260;2023-03-07T01:20:15;9.68;;;7.20;;
33268;SDS011;19640;50.944;5.260;2023-03-07T01:22:41;8.88;;;7.03;;
33268;SDS011;19640;50.944;5.260;2023-03-07T01:25:06;9.10;;;7.10;;
33268;SDS011;19640;50.944;5.260;2023-03-07T01:27:32;11.80;;;7.72;;
33268;SDS011;19640;50.944;5.260;2023-03-07T01:29:58;11.30;;;7.90;;
33268;SDS011;19640;50.944;5.260;2023-03-07T01:32:24;11.48;;;9.32;;
33268;SDS011;19640;50.944;5.260;2023-03-07T01:34:49;12.95;;;9.02;;
33268;SDS011;19640;50.944;5.260;2023-03-07T01:37:15;13.65;;;9.68;;
33268;SDS011;19640;50.944;5.260;2023-03-07T01:39:42;13.50;;;9.23;;
33268;SDS011;19640;50.944;5.260;2023-03-07T01:42:09;15.52;;;11.23;;
33268;SDS011;19640;50.944;5.260;2023-03-07T01:47:23;13.65;;;11.15;;
33268;SDS011;19640;50.944;5.260;2023-03-07T01:49:49;14.27;;;9.63;;
33268;SDS011;19640;50.944;5.260;2023-03-07T01:52:25;14.23;;;10.15;;
33268;SDS011;19640;50.944;5.260;2023-03-07T01:55:02;16.52;;;11.63;;
33268;SDS011;19640;50.944;5.260;2023-03-07T01:57:36;18.33;;;10.95;;
33268;SDS011;19640;50.944;5.260;2023-03-07T02:00:08;15.98;;;11.48;;
33268;SDS011;19640;50.944;5.260;2023-03-07T02:02:38;15.75;;;10.63;;
33268;SDS011;19640;50.944;5.260;2023-03-07T02:05:09;16.25;;;10.65;;
33268;SDS011;19640;50.944;5.260;2023-03-07T02:07:43;16.25;;;10.68;;
33268;SDS011;19640;50.944;5.260;2023-03-07T02:10:12;14.73;;;9.80;;
33268;SDS011;19640;50.944;5.260;2023-03-07T02:12:40;13.13;;;9.90;;
33268;SDS011;19640;50.944;5.260;2023-03-07T02:15:07;12.13;;;8.20;;
33268;SDS011;19640;50.944;5.260;2023-03-07T02:17:34;16.50;;;9.68;;
33268;SDS011;19640;50.944;5.260;2023-03-07T02:22:51;18.00;;;10.45;;
33268;SDS011;19640;50.944;5.260;2023-03-07T02:25:24;16.58;;;10.25;;
33268;SDS011;19640;50.944;5.260;2023-03-07T02:27:53;14.52;;;10.73;;
33268;SDS011;19640;50.944;5.260;2023-03-07T02:30:21;16.83;;;11.23;;
33268;SDS011;19640;50.944;5.260;2023-03-07T02:32:47;15.75;;;11.27;;
33268;SDS011;19640;50.944;5.260;2023-03-07T02:35:18;13.18;;;10.20;;
33268;SDS011;19640;50.944;5.260;2023-03-07T02:37:46;15.82;;;9.38;;
33268;SDS011;19640;50.944;5.260;2023-03-07T02:40:15;21.73;;;11.75;;
33268;SDS011;19640;50.944;5.260;2023-03-07T02:42:44;14.07;;;10.70;;
33268;SDS011;19640;50.944;5.260;2023-03-07T02:45:12;13.60;;;11.05;;
33268;SDS011;19640;50.944;5.260;2023-03-07T02:47:41;20.73;;;12.13;;
33268;SDS011;19640;50.944;5.260;2023-03-07T02:50:08;16.90;;;10.63;;
33268;SDS011;19640;50.944;5.260;2023-03-07T02:52:34;15.57;;;10.52;;
33268;SDS011;19640;50.944;5.260;2023-03-07T02:55:00;19.10;;;11.20;;
33268;SDS011;19640;50.944;5.260;2023-03-07T02:57:26;19.08;;;11.68;;
33268;SDS011;19640;50.944;5.260;2023-03-07T02:59:51;15.15;;;11.52;;
33268;SDS011;19640;50.944;5.260;2023-03-07T03:02:17;21.42;;;11.75;;
33268;SDS011;19640;50.944;5.260;2023-03-07T03:04:43;17.38;;;12.43;;
33268;SDS011;19640;50.944;5.260;2023-03-07T03:07:08;16.20;;;11.80;;
33268;SDS011;19640;50.944;5.260;2023-03-07T03:09:34;15.60;;;12.02;;
33268;SDS011;19640;50.944;5.260;2023-03-07T03:12:00;16.27;;;12.00;;
33268;SDS011;19640;50.944;5.260;2023-03-07T03:14:26;21.20;;;12.35;;
33268;SDS011;19640;50.944;5.260;2023-03-07T03:16:52;17.27;;;12.00;;
33268;SDS011;19640;50.944;5.260;2023-03-07T03:19:18;14.02;;;9.50;;
33268;SDS011;19640;50.944;5.260;2023-03-07T03:21:44;14.45;;;11.88;;
33268;SDS011;19640;50.944;5.260;2023-03-07T03:24:10;19.83;;;12.60;;
33268;SDS011;19640;50.944;5.260;2023-03-07T03:26:36;16.90;;;12.45;;
33268;SDS011;19640;50.944;5.260;2023-03-07T03:29:03;15.65;;;11.68;;
33268;SDS011;19640;50.944;5.260;2023-03-07T03:31:29;19.55;;;11.65;;
33268;SDS011;19640;50.944;5.260;2023-03-07T03:33:56;19.80;;;12.35;;
33268;SDS011;19640;50.944;5.260;2023-03-07T03:36:22;14.82;;;10.30;;
33268;SDS011;19640;50.944;5.260;2023-03-07T03:38:52;19.27;;;11.23;;
33268;SDS011;19640;50.944;5.260;2023-03-07T03:41:19;17.88;;;12.00;;
33268;SDS011;19640;50.944;5.260;2023-03-07T03:43:44;18.80;;;12.75;;
33268;SDS011;19640;50.944;5.260;2023-03-07T03:46:10;17.33;;;11.80;;
33268;SDS011;19640;50.944;5.260;2023-03-07T03:48:36;18.83;;;12.32;;
33268;SDS011;19640;50.944;5.260;2023-03-07T03:51:06;17.85;;;11.88;;
33268;SDS011;19640;50.944;5.260;2023-03-07T03:53:35;16.85;;;11.32;;
33268;SDS011;19640;50.944;5.260;2023-03-07T03:56:04;16.30;;;11.95;;
33268;SDS011;19640;50.944;5.260;2023-03-07T03:58:40;14.90;;;11.10;;
33268;SDS011;19640;50.944;5.260;2023-03-07T04:01:07;19.80;;;11.88;;
33268;SDS011;19640;50.944;5.260;2023-03-07T04:03:35;17.85;;;10.88;;
33268;SDS011;19640;50.944;5.260;2023-03-07T04:06:03;15.73;;;10.63;;
33268;SDS011;19640;50.944;5.260;2023-03-07T04:08:31;16.38;;;10.93;;
33268;SDS011;19640;50.944;5.260;2023-03-07T04:10:58;15.25;;;10.65;;
33268;SDS011;19640;50.944;5.260;2023-03-07T04:13:24;14.48;;;10.50;;
33268;SDS011;19640;50.944;5.260;2023-03-07T04:15:50;14.85;;;11.00;;
33268;SDS011;19640;50.944;5.260;2023-03-07T04:18:16;16.33;;;11.30;;
33268;SDS011;19640;50.944;5.260;2023-03-07T04:20:43;14.15;;;11.02;;
33268;SDS011;19640;50.944;5.260;2023-03-07T04:23:09;16.58;;;11.02;;
33268;SDS011;19640;50.944;5.260;2023-03-07T04:25:35;15.77;;;10.90;;
33268;SDS011;19640;50.944;5.260;2023-03-07T04:28:01;18.02;;;10.93;;
33268;SDS011;19640;50.944;5.260;2023-03-07T04:30:27;17.50;;;12.23;;
33268;SDS011;19640;50.944;5.260;2023-03-07T04:32:52;20.35;;;11.57;;
33268;SDS011;19640;50.944;5.260;2023-03-07T04:35:18;14.65;;;11.00;;
33268;SDS011;19640;50.944;5.260;2023-03-07T04:37:44;17.85;;;11.70;;
33268;SDS011;19640;50.944;5.260;2023-03-07T04:40:10;19.88;;;13.00;;
33268;SDS011;19640;50.944;5.260;2023-03-07T04:42:36;16.17;;;11.25;;
33268;SDS011;19640;50.944;5.260;2023-03-07T04:45:02;17.13;;;11.32;;
33268;SDS011;19640;50.944;5.260;2023-03-07T04:47:27;15.10;;;10.60;;
33268;SDS011;19640;50.944;5.260;2023-03-07T04:49:53;15.88;;;10.82;;
33268;SDS011;19640;50.944;5.260;2023-03-07T04:52:19;14.52;;;10.35;;
33268;SDS011;19640;50.944;5.260;2023-03-07T04:54:44;17.38;;;10.75;;
33268;SDS011;19640;50.944;5.260;2023-03-07T04:57:10;14.73;;;10.70;;
33268;SDS011;19640;50.944;5.260;2023-03-07T04:59:36;16.63;;;11.48;;
33268;SDS011;19640;50.944;5.260;2023-03-07T05:02:07;16.58;;;11.50;;
33268;SDS011;19640;50.944;5.260;2023-03-07T05:04:35;15.63;;;11.82;;
33268;SDS011;19640;50.944;5.260;2023-03-07T05:07:01;19.27;;;12.57;;
33268;SDS011;19640;50.944;5.260;2023-03-07T05:09:27;24.15;;;12.00;;
33268;SDS011;19640;50.944;5.260;2023-03-07T05:11:53;19.55;;;11.95;;
33268;SDS011;19640;50.944;5.260;2023-03-07T05:14:19;15.15;;;10.00;;
33268;SDS011;19640;50.944;5.260;2023-03-07T05:16:44;17.23;;;11.00;;
33268;SDS011;19640;50.944;5.260;2023-03-07T05:19:10;16.05;;;11.57;;
33268;SDS011;19640;50.944;5.260;2023-03-07T05:21:37;20.05;;;12.02;;
33268;SDS011;19640;50.944;5.260;2023-03-07T05:24:08;15.18;;;11.02;;
33268;SDS011;19640;50.944;5.260;2023-03-07T05:26:34;16.65;;;11.40;;
33268;SDS011;19640;50.944;5.260;2023-03-07T05:29:00;15.45;;;10.88;;
33268;SDS011;19640;50.944;5.260;2023-03-07T05:31:25;18.75;;;11.55;;
33268;SDS011;19640;50.944;5.260;2023-03-07T05:33:51;18.58;;;10.95;;
33268;SDS011;19640;50.944;5.260;2023-03-07T05:36:17;13.40;;;10.05;;
33268;SDS011;19640;50.944;5.260;2023-03-07T05:38:43;16.95;;;11.13;;
33268;SDS011;19640;50.944;5.260;2023-03-07T05:41:08;17.23;;;11.23;;
33268;SDS011;19640;50.944;5.260;2023-03-07T05:43:34;14.27;;;10.93;;
33268;SDS011;19640;50.944;5.260;2023-03-07T05:46:00;13.75;;;10.35;;
33268;SDS011;19640;50.944;5.260;2023-03-07T05:48:26;17.65;;;11.15;;
33268;SDS011;19640;50.944;5.260;2023-03-07T05:50:51;10.68;;;8.00;;
33268;SDS011;19640;50.944;5.260;2023-03-07T05:53:17;12.85;;;9.98;;
33268;SDS011;19640;50.944;5.260;2023-03-07T05:55:43;14.68;;;10.43;;
33268;SDS011;19640;50.944;5.260;2023-03-07T05:58:09;15.95;;;10.38;;
33268;SDS011;19640;50.944;5.260;2023-03-07T06:00:34;19.55;;;11.23;;
33268;SDS011;19640;50.944;5.260;2023-03-07T06:03:01;14.10;;;9.75;;
33268;SDS011;19640;50.944;5.260;2023-03-07T06:05:27;13.80;;;10.50;;
33268;SDS011;19640;50.944;5.260;2023-03-07T06:07:53;14.10;;;10.50;;
33268;SDS011;19640;50.944;5.260;2023-03-07T06:10:19;17.05;;;11.35;;
33268;SDS011;19640;50.944;5.260;2023-03-07T06:12:48;16.67;;;10.25;;
33268;SDS011;19640;50.944;5.260;2023-03-07T06:15:22;13.35;;;9.85;;
33268;SDS011;19640;50.944;5.260;2023-03-07T06:17:48;17.80;;;10.65;;
33268;SDS011;19640;50.944;5.260;2023-03-07T06:20:14;16.30;;;9.63;;
33268;SDS011;19640;50.944;5.260;2023-03-07T06:22:40;13.93;;;10.95;;
33268;SDS011;19640;50.944;5.260;2023-03-07T06:25:06;15.25;;;9.57;;
33268;SDS011;19640;50.944;5.260;2023-03-07T06:27:33;19.15;;;10.95;;
33268;SDS011;19640;50.944;5.260;2023-03-07T06:30:00;15.95;;;11.23;;
33268;SDS011;19640;50.944;5.260;2023-03-07T06:32:26;13.77;;;10.30;;
33268;SDS011;19640;50.944;5.260;2023-03-07T06:34:52;16.33;;;10.98;;
33268;SDS011;19640;50.944;5.260;2023-03-07T06:37:17;16.40;;;11.45;;
33268;SDS011;19640;50.944;5.260;2023-03-07T06:39:43;16.67;;;11.10;;
33268;SDS011;19640;50.944;5.260;2023-03-07T06:42:09;16.10;;;10.65;;
33268;SDS011;19640;50.944;5.260;2023-03-07T06:44:35;13.48;;;10.23;;
33268;SDS011;19640;50.944;5.260;2023-03-07T06:47:00;14.98;;;10.45;;
33268;SDS011;19640;50.944;5.260;2023-03-07T06:49:26;16.00;;;10.32;;
33268;SDS011;19640;50.944;5.260;2023-03-07T06:51:51;15.00;;;10.23;;
33268;SDS011;19640;50.944;5.260;2023-03-07T06:54:17;12.93;;;9.68;;
33268;SDS011;19640;50.944;5.260;2023-03-07T06:56:43;15.18;;;10.10;;
33268;SDS011;19640;50.944;5.260;2023-03-07T06:59:09;13.43;;;9.75;;
33268;SDS011;19640;50.944;5.260;2023-03-07T07:01:35;13.30;;;8.88;;
33268;SDS011;19640;50.944;5.260;2023-03-07T07:04:01;13.25;;;8.73;;
33268;SDS011;19640;50.944;5.260;2023-03-07T07:06:27;11.88;;;9.27;;
33268;SDS011;19640;50.944;5.260;2023-03-07T07:08:57;12.15;;;8.75;;
33268;SDS011;19640;50.944;5.260;2023-03-07T07:11:23;11.85;;;10.02;;
33268;SDS011;19640;50.944;5.260;2023-03-07T07:13:50;10.77;;;8.68;;
33268;SDS011;19640;50.944;5.260;2023-03-07T07:16:16;10.93;;;8.27;;
33268;SDS011;19640;50.944;5.260;2023-03-07T07:18:43;12.40;;;8.77;;
33268;SDS011;19640;50.944;5.260;2023-03-07T07:21:09;13.38;;;9.35;;
33268;SDS011;19640;50.944;5.260;2023-03-07T07:23:35;14.18;;;8.65;;
33268;SDS011;19640;50.944;5.260;2023-03-07T07:26:00;14.40;;;9.02;;
33268;SDS011;19640;50.944;5.260;2023-03-07T07:28:26;13.88;;;9.80;;
33268;SDS011;19640;50.944;5.260;2023-03-07T07:30:52;13.13;;;10.00;;
33268;SDS011;19640;50.944;5.260;2023-03-07T07:33:18;15.70;;;10.57;;
33268;SDS011;19640;50.944;5.260;2023-03-07T07:35:44;11.90;;;8.48;;
33268;SDS011;19640;50.944;5.260;2023-03-07T07:38:11;12.27;;;9.30;;
33268;SDS011;19640;50.944;5.260;2023-03-07T07:40:37;12.80;;;9.25;;
33268;SDS011;19640;50.944;5.260;2023-03-07T07:43:03;11.93;;;9.65;;
33268;SDS011;19640;50.944;5.260;2023-03-07T07:45:28;12.00;;;9.00;;
33268;SDS011;19640;50.944;5.260;2023-03-07T07:47:54;13.32;;;9.52;;
33268;SDS011;19640;50.944;5.260;2023-03-07T07:50:20;13.02;;;9.48;;
33268;SDS011;19640;50.944;5.260;2023-03-07T07:52:47;14.88;;;9.80;;
33268;SDS011;19640;50.944;5.260;2023-03-07T07:55:13;12.63;;;9.50;;
33268;SDS011;19640;50.944;5.260;2023-03-07T07:57:40;14.07;;;10.15;;
33268;SDS011;19640;50.944;5.260;2023-03-07T08:00:06;14.02;;;10.30;;
33268;SDS011;19640;50.944;5.260;2023-03-07T08:02:34;15.55;;;10.15;;
33268;SDS011;19640;50.944;5.260;2023-03-07T08:05:00;16.00;;;9.52;;
33268;SDS011;19640;50.944;5.260;2023-03-07T08:07:26;13.40;;;9.88;;
33268;SDS011;19640;50.944;5.260;2023-03-07T08:09:51;16.65;;;11.00;;
33268;SDS011;19640;50.944;5.260;2023-03-07T08:12:17;12.55;;;9.65;;
33268;SDS011;19640;50.944;5.260;2023-03-07T08:14:43;15.35;;;10.65;;
33268;SDS011;19640;50.944;5.260;2023-03-07T08:17:08;14.80;;;9.88;;
33268;SDS011;19640;50.944;5.260;2023-03-07T08:19:34;16.02;;;10.70;;
33268;SDS011;19640;50.944;5.260;2023-03-07T08:22:00;14.35;;;10.38;;
33268;SDS011;19640;50.944;5.260;2023-03-07T08:24:26;13.23;;;10.77;;
33268;SDS011;19640;50.944;5.260;2023-03-07T08:26:52;16.63;;;9.40;;
33268;SDS011;19640;50.944;5.260;2023-03-07T08:29:17;18.60;;;10.75;;
33268;SDS011;19640;50.944;5.260;2023-03-07T08:31:43;18.92;;;11.52;;
33268;SDS011;19640;50.944;5.260;2023-03-07T08:34:10;15.35;;;10.73;;
33268;SDS011;19640;50.944;5.260;2023-03-07T08:36:38;15.48;;;10.70;;
33268;SDS011;19640;50.944;5.260;2023-03-07T08:39:04;15.40;;;11.00;;
33268;SDS011;19640;50.944;5.260;2023-03-07T08:41:30;20.35;;;11.40;;
33268;SDS011;19640;50.944;5.260;2023-03-07T08:43:56;15.35;;;9.75;;
33268;SDS011;19640;50.944;5.260;2023-03-07T08:46:21;19.00;;;10.13;;
33268;SDS011;19640;50.944;5.260;2023-03-07T08:48:47;16.90;;;10.15;;
33268;SDS011;19640;50.944;5.260;2023-03-07T08:51:14;22.92;;;11.48;;
33268;SDS011;19640;50.944;5.260;2023-03-07T08:53:41;18.85;;;10.55;;
33268;SDS011;19640;50.944;5.260;2023-03-07T08:56:08;14.20;;;9.45;;
33268;SDS011;19640;50.944;5.260;2023-03-07T08:58:36;11.10;;;8.60;;
33268;SDS011;19640;50.944;5.260;2023-03-07T09:01:02;16.92;;;9.27;;
33268;SDS011;19640;50.944;5.260;2023-03-07T09:03:29;11.80;;;9.18;;
33268;SDS011;19640;50.944;5.260;2023-03-07T09:05:55;12.45;;;9.93;;
33268;SDS011;19640;50.944;5.260;2023-03-07T09:08:20;14.75;;;9.68;;
33268;SDS011;19640;50.944;5.260;2023-03-07T09:10:46;11.25;;;10.00;;
33268;SDS011;19640;50.944;5.260;2023-03-07T09:13:12;16.25;;;8.52;;
33268;SDS011;19640;50.944;5.260;2023-03-07T09:15:38;14.70;;;9.95;;
33268;SDS011;19640;50.944;5.260;2023-03-07T09:18:04;13.45;;;9.75;;
33268;SDS011;19640;50.944;5.260;2023-03-07T09:20:30;14.18;;;9.52;;
33268;SDS011;19640;50.944;5.260;2023-03-07T09:22:56;15.10;;;10.38;;
33268;SDS011;19640;50.944;5.260;2023-03-07T09:25:22;14.90;;;9.85;;
33268;SDS011;19640;50.944;5.260;2023-03-07T09:27:48;12.07;;;9.20;;
33268;SDS011;19640;50.944;5.260;2023-03-07T09:30:14;13.32;;;9.70;;
33268;SDS011;19640;50.944;5.260;2023-03-07T09:32:40;11.45;;;8.27;;
33268;SDS011;19640;50.944;5.260;2023-03-07T09:35:06;10.48;;;8.02;;
33268;SDS011;19640;50.944;5.260;2023-03-07T09:37:32;10.25;;;8.48;;
33268;SDS011;19640;50.944;5.260;2023-03-07T09:39:58;11.20;;;8.32;;
33268;SDS011;19640;50.944;5.260;2023-03-07T09:43:08;11.35;;;8.30;;
33268;SDS011;19640;50.944;5.260;2023-03-07T09:47:48;11.73;;;8.55;;
33268;SDS011;19640;50.944;5.260;2023-03-07T09:53:02;12.15;;;8.70;;
33268;SDS011;19640;50.944;5.260;2023-03-07T09:55:29;10.98;;;8.40;;
33268;SDS011;19640;50.944;5.260;2023-03-07T09:57:57;11.52;;;9.30;;
33268;SDS011;19640;50.944;5.260;2023-03-07T10:00:30;13.32;;;9.70;;
33268;SDS011;19640;50.944;5.260;2023-03-07T10:03:20;13.95;;;10.98;;
33268;SDS011;19640;50.944;5.260;2023-03-07T10:06:07;12.45;;;9.82;;
33268;SDS011;19640;50.944;5.260;2023-03-07T10:08:49;15.82;;;10.00;;
33268;SDS011;19640;50.944;5.260;2023-03-07T10:16:46;13.18;;;9.63;;
33268;SDS011;19640;50.944;5.260;2023-03-07T10:27:28;13.55;;;9.80;;
33268;SDS011;19640;50.944;5.260;2023-03-07T10:29:55;14.63;;;10.18;;
33268;SDS011;19640;50.944;5.260;2023-03-07T10:40:41;11.93;;;8.13;;
33268;SDS011;19640;50.944;5.260;2023-03-07T10:43:23;8.77;;;7.47;;
33268;SDS011;19640;50.944;5.260;2023-03-07T10:45:55;9.90;;;6.57;;
33268;SDS011;19640;50.944;5.260;2023-03-07T10:48:30;8.82;;;7.85;;
33268;SDS011;19640;50.944;5.260;2023-03-07T10:51:01;8.73;;;6.95;;
33268;SDS011;19640;50.944;5.260;2023-03-07T10:53:36;11.13;;;8.07;;
33268;SDS011;19640;50.944;5.260;2023-03-07T10:56:08;9.43;;;7.55;;
33268;SDS011;19640;50.944;5.260;2023-03-07T10:58:38;7.68;;;6.68;;
33268;SDS011;19640;50.944;5.260;2023-03-07T11:01:22;9.80;;;6.97;;
33268;SDS011;19640;50.944;5.260;2023-03-07T11:03:50;7.45;;;6.60;;
33268;SDS011;19640;50.944;5.260;2023-03-07T11:06:27;8.77;;;6.88;;
33268;SDS011;19640;50.944;5.260;2023-03-07T11:09:07;7.50;;;6.60;;
33268;SDS011;19640;50.944;5.260;2023-03-07T11:11:47;6.75;;;5.95;;
33268;SDS011;19640;50.944;5.260;2023-03-07T11:14:19;8.40;;;6.22;;
33268;SDS011;19640;50.944;5.260;2023-03-07T11:16:47;7.07;;;6.30;;
33268;SDS011;19640;50.944;5.260;2023-03-07T11:21:59;8.35;;;4.60;;
33268;SDS011;19640;50.944;5.260;2023-03-07T11:25:12;5.70;;;4.40;;
33268;SDS011;19640;50.944;5.260;2023-03-07T11:27:37;5.35;;;4.32;;
33268;SDS011;19640;50.944;5.260;2023-03-07T11:40:46;3.42;;;3.13;;
33268;SDS011;19640;50.944;5.260;2023-03-07T11:43:24;4.13;;;3.50;;
33268;SDS011;19640;50.944;5.260;2023-03-07T11:46:21;4.40;;;4.00;;
33268;SDS011;19640;50.944;5.260;2023-03-07T11:54:20;5.28;;;3.97;;
33268;SDS011;19640;50.944;5.260;2023-03-07T12:02:39;4.80;;;3.83;;
33268;SDS011;19640;50.944;5.260;2023-03-07T12:05:26;3.53;;;3.00;;
33268;SDS011;19640;50.944;5.260;2023-03-07T12:13:14;4.03;;;2.83;;
33268;SDS011;19640;50.944;5.260;2023-03-07T12:18:25;3.00;;;2.70;;
33268;SDS011;19640;50.944;5.260;2023-03-07T12:24:19;2.67;;;2.45;;
33268;SDS011;19640;50.944;5.260;2023-03-07T12:29:58;2.10;;;1.67;;
33268;SDS011;19640;50.944;5.260;2023-03-07T12:32:37;1.90;;;1.58;;
33268;SDS011;19640;50.944;5.260;2023-03-07T12:35:07;3.22;;;1.83;;
33268;SDS011;19640;50.944;5.260;2023-03-07T12:40:54;7.65;;;6.00;;
33268;SDS011;19640;50.944;5.260;2023-03-07T12:43:32;7.65;;;6.53;;
33268;SDS011;19640;50.944;5.260;2023-03-07T12:46:11;8.90;;;7.97;;
33268;SDS011;19640;50.944;5.260;2023-03-07T12:48:40;9.45;;;8.45;;
33268;SDS011;19640;50.944;5.260;2023-03-07T12:51:10;10.45;;;8.73;;
33268;SDS011;19640;50.944;5.260;2023-03-07T12:53:52;10.75;;;7.60;;
33268;SDS011;19640;50.944;5.260;2023-03-07T12:59:21;8.68;;;7.78;;
33268;SDS011;19640;50.944;5.260;2023-03-07T13:04:36;7.65;;;6.80;;
33268;SDS011;19640;50.944;5.260;2023-03-07T13:09:38;8.88;;;7.93;;
33268;SDS011;19640;50.944;5.260;2023-03-07T13:28:03;9.98;;;9.07;;
33268;SDS011;19640;50.944;5.260;2023-03-07T13:33:40;6.78;;;5.85;;
33268;SDS011;19640;50.944;5.260;2023-03-07T13:38:56;6.40;;;5.57;;
33268;SDS011;19640;50.944;5.260;2023-03-07T13:47:01;8.23;;;6.75;;
33268;SDS011;19640;50.944;5.260;2023-03-07T13:49:32;10.07;;;7.47;;
33268;SDS011;19640;50.944;5.260;2023-03-07T13:55:02;10.43;;;8.70;;
33268;SDS011;19640;50.944;5.260;2023-03-07T13:57:38;9.82;;;8.77;;
33268;SDS011;19640;50.944;5.260;2023-03-07T14:00:29;9.13;;;8.02;;
33268;SDS011;19640;50.944;5.260;2023-03-07T14:02:56;9.57;;;8.55;;
33268;SDS011;19640;50.944;5.260;2023-03-07T14:05:22;10.43;;;9.43;;
33268;SDS011;19640;50.944;5.260;2023-03-07T14:07:48;11.32;;;10.07;;
33268;SDS011;19640;50.944;5.260;2023-03-07T14:10:17;9.95;;;8.95;;
33268;SDS011;19640;50.944;5.260;2023-03-07T14:12:59;9.82;;;8.82;;
33268;SDS011;19640;50.944;5.260;2023-03-07T14:15:46;9.85;;;8.80;;
33268;SDS011;19640;50.944;5.260;2023-03-07T14:28:58;8.82;;;7.93;;
33268;SDS011;19640;50.944;5.260;2023-03-07T14:31:51;8.90;;;7.95;;
33268;SDS011;19640;50.944;5.260;2023-03-07T14:37:01;10.90;;;9.10;;
33268;SDS011;19640;50.944;5.260;2023-03-07T14:51:28;8.10;;;6.45;;
33268;SDS011;19640;50.944;5.260;2023-03-07T14:53:55;7.70;;;6.90;;
33268;SDS011;19640;50.944;5.260;2023-03-07T14:56:23;8.07;;;6.53;;
33268;SDS011;19640;50.944;5.260;2023-03-07T14:58:53;7.60;;;6.60;;
33268;SDS011;19640;50.944;5.260;2023-03-07T15:01:21;7.53;;;5.90;;
33268;SDS011;19640;50.944;5.260;2023-03-07T15:03:51;7.45;;;6.50;;
33268;SDS011;19640;50.944;5.260;2023-03-07T15:06:19;8.20;;;6.82;;
33268;SDS011;19640;50.944;5.260;2023-03-07T15:08:50;7.60;;;6.85;;
33268;SDS011;19640;50.944;5.260;2023-03-07T15:13:52;8.45;;;7.32;;
33268;SDS011;19640;50.944;5.260;2023-03-07T15:18:49;8.25;;;7.07;;
33268;SDS011;19640;50.944;5.260;2023-03-07T15:21:19;7.40;;;6.32;;
33268;SDS011;19640;50.944;5.260;2023-03-07T15:23:54;7.43;;;6.55;;
33268;SDS011;19640;50.944;5.260;2023-03-07T15:26:24;8.77;;;7.88;;
33268;SDS011;19640;50.944;5.260;2023-03-07T15:28:58;8.35;;;7.35;;
33268;SDS011;19640;50.944;5.260;2023-03-07T15:31:29;7.78;;;6.68;;
33268;SDS011;19640;50.944;5.260;2023-03-07T15:34:18;8.35;;;7.45;;
33268;SDS011;19640;50.944;5.260;2023-03-07T15:36:50;8.00;;;7.03;;
33268;SDS011;19640;50.944;5.260;2023-03-07T15:39:32;8.48;;;7.20;;
33268;SDS011;19640;50.944;5.260;2023-03-07T15:42:02;9.43;;;7.78;;
33268;SDS011;19640;50.944;5.260;2023-03-07T15:44:32;10.63;;;8.20;;
33268;SDS011;19640;50.944;5.260;2023-03-07T15:47:02;9.02;;;7.65;;
33268;SDS011;19640;50.944;5.260;2023-03-07T15:49:46;8.77;;;7.45;;
33268;SDS011;19640;50.944;5.260;2023-03-07T15:52:39;8.57;;;7.40;;
33268;SDS011;19640;50.944;5.260;2023-03-07T15:55:05;10.82;;;7.88;;
33268;SDS011;19640;50.944;5.260;2023-03-07T15:57:48;9.25;;;7.40;;
33268;SDS011;19640;50.944;5.260;2023-03-07T16:00:40;9.82;;;8.15;;
33268;SDS011;19640;50.944;5.260;2023-03-07T16:05:40;9.27;;;7.63;;
33268;SDS011;19640;50.944;5.260;2023-03-07T16:08:11;12.82;;;10.48;;
33268;SDS011;19640;50.944;5.260;2023-03-07T16:13:07;16.65;;;11.35;;
33268;SDS011;19640;50.944;5.260;2023-03-07T16:15:36;16.35;;;12.63;;
33268;SDS011;19640;50.944;5.260;2023-03-07T16:18:01;18.73;;;11.60;;
33268;SDS011;19640;50.944;5.260;2023-03-07T16:20:29;12.65;;;10.18;;
33268;SDS011;19640;50.944;5.260;2023-03-07T16:22:55;12.77;;;10.25;;
33268;SDS011;19640;50.944;5.260;2023-03-07T16:25:21;8.50;;;7.10;;
33268;SDS011;19640;50.944;5.260;2023-03-07T16:27:51;12.18;;;8.48;;
33268;SDS011;19640;50.944;5.260;2023-03-07T16:30:21;11.40;;;9.23;;
33268;SDS011;19640;50.944;5.260;2023-03-07T16:32:48;11.23;;;10.02;;
33268;SDS011;19640;50.944;5.260;2023-03-07T16:35:15;11.95;;;9.82;;
33268;SDS011;19640;50.944;5.260;2023-03-07T16:37:48;13.48;;;10.98;;
33268;SDS011;19640;50.944;5.260;2023-03-07T16:40:14;14.68;;;12.57;;
33268;SDS011;19640;50.944;5.260;2023-03-07T16:42:41;13.73;;;12.23;;
33268;SDS011;19640;50.944;5.260;2023-03-07T16:45:17;13.80;;;12.00;;
33268;SDS011;19640;50.944;5.260;2023-03-07T16:47:51;14.23;;;11.60;;
33268;SDS011;19640;50.944;5.260;2023-03-07T16:50:26;15.82;;;13.20;;
33268;SDS011;19640;50.944;5.260;2023-03-07T16:52:54;17.25;;;14.23;;
33268;SDS011;19640;50.944;5.260;2023-03-07T16:55:20;16.10;;;13.57;;
33268;SDS011;19640;50.944;5.260;2023-03-07T16:57:48;16.70;;;14.25;;
33268;SDS011;19640;50.944;5.260;2023-03-07T17:00:21;16.90;;;12.88;;
33268;SDS011;19640;50.944;5.260;2023-03-07T17:02:50;16.60;;;14.32;;
33268;SDS011;19640;50.944;5.260;2023-03-07T17:05:21;17.55;;;13.77;;
33268;SDS011;19640;50.944;5.260;2023-03-07T17:07:52;18.08;;;13.98;;
33268;SDS011;19640;50.944;5.260;2023-03-07T17:10:19;19.10;;;13.63;;
33268;SDS011;19640;50.944;5.260;2023-03-07T17:12:46;16.23;;;12.95;;